This is the latest recevied weather packets stored in our database for station/object OE7BJT-13. If no packets are shown the sender has not sent any weather packets the latest 10 day(s).
| Time | Temp. | Humidity | Pressure | Rain* | Wind** | Luminosity | Snow |
|---|---|---|---|---|---|---|---|
| 1777680213 | 6.11° C | 88% | 1025 hPa | - | - | - | - |
| 1777679002 | 6.67° C | 86% | 1025 hPa | - | - | - | - |
| 1777677185 | 7.22° C | 82% | 1025 hPa | - | - | - | - |
| 1777676579 | 7.22° C | 81% | 1025 hPa | - | - | - | - |
| 1777675974 | 7.78° C | 78% | 1025 hPa | - | - | - | - |
| 1777675368 | 7.22° C | 79% | 1025 hPa | - | - | - | - |
| 1777674158 | 7.78° C | 80% | 1025 hPa | - | - | - | - |
| 1777673551 | 8.33° C | 74% | 1025 hPa | - | - | - | - |
| 1777672340 | 8.89° C | 74% | 1025 hPa | - | - | - | - |
| 1777671129 | 8.89° C | 73% | 1025 hPa | - | - | - | - |
| 1777669312 | 10° C | 68% | 1025 hPa | - | - | - | - |
| 1777668706 | 10° C | 67% | 1025 hPa | - | - | - | - |
| 1777668101 | 10.56° C | 66% | 1025 hPa | - | - | - | - |
| 1777667495 | 10.56° C | 66% | 1025 hPa | - | - | - | - |
| 1777666284 | 11.11° C | 63% | 1025 hPa | - | - | - | - |
| 1777664467 | 12.22° C | 54% | 1025 hPa | - | - | - | - |
| 1777663862 | 12.22° C | 57% | 1025 hPa | - | - | - | - |
| 1777663256 | 12.78° C | 53% | 1024 hPa | - | - | - | - |
| 1777662651 | 12.78° C | 53% | 1024 hPa | - | - | - | - |
| 1777662045 | 13.33° C | 52% | 1024 hPa | - | - | - | - |
| 1777661439 | 13.89° C | 50% | 1024 hPa | - | - | - | - |
| 1777660834 | 14.44° C | 45% | 1024 hPa | - | - | - | - |
| 1777660228 | 16.11° C | 39% | 1024 hPa | - | - | - | - |
| 1777659623 | 16.67° C | 37% | 1024 hPa | - | - | - | - |
| 1777658411 | 17.22° C | 36% | 1024 hPa | - | - | - | - |
* Rain since midnight (hover to see other rain measurements)
** Current wind speed in m/s (hover to see current wind gust speed)